Time;durP1;ratioP1;P1;durP2;ratioP2;P2;SDS_P1;SDS_P2;PMS_P1;PMS_P2;Temp;Humidity;BMP_temperature;BMP_pressure;BME280_temperature;BME280_humidity;BME280_pressure;Samples;Min_cycle;Max_cycle;Signal;HPM_P1;HPM_P2
2022/07/23 00:07:35;;;;;;;10.63;7.60;;;20.60;99.90;;;;;;20867599;28;20444;-78
2022/07/23 00:17:36;;;;;;;13.37;7.10;;;20.40;99.90;;;;;;20846992;28;20075;-78
2022/07/23 00:27:37;;;;;;;12.33;8.13;;;20.20;99.90;;;;;;20823817;28;20528;-77
2022/07/23 00:37:38;;;;;;;11.20;7.77;;;19.90;99.90;;;;;;20821770;28;20048;-77
2022/07/23 00:47:39;;;;;;;9.87;7.43;;;20.00;99.90;;;;;;20838725;28;20041;-77
2022/07/23 00:57:41;;;;;;;12.35;7.60;;;20.20;99.90;;;;;;20838571;28;20052;-77
2022/07/23 01:07:42;;;;;;;12.68;8.30;;;20.00;99.90;;;;;;20820312;28;20048;-77
2022/07/23 01:17:43;;;;;;;13.10;7.43;;;19.70;99.90;;;;;;20818648;28;20382;-78
2022/07/23 01:27:44;;;;;;;10.00;6.93;;;19.60;99.90;;;;;;20823931;28;20468;-78
2022/07/23 01:37:45;;;;;;;11.03;7.60;;;19.60;99.90;;;;;;20826187;28;20041;-77
2022/07/23 01:47:48;;;;;;;10.45;7.00;;;19.50;99.90;;;;;;20873513;22;20326;-73
2022/07/23 01:57:49;;;;;;;11.52;8.00;;;19.60;99.90;;;;;;20907581;28;20037;-73
2022/07/23 02:07:54;;;;;;;9.32;6.50;;;19.30;99.90;;;;;;20906847;28;20122;-73
2022/07/23 02:17:55;;;;;;;10.55;7.20;;;19.70;99.90;;;;;;20906530;28;20051;-73
2022/07/23 02:27:56;;;;;;;16.23;7.67;;;19.70;99.90;;;;;;20905949;28;20045;-74
2022/07/23 02:37:57;;;;;;;12.53;8.00;;;19.60;99.90;;;;;;20906763;28;20416;-73
2022/07/23 02:47:58;;;;;;;15.00;9.00;;;19.40;99.90;;;;;;20906102;28;20037;-73
2022/07/23 02:58:00;;;;;;;11.40;7.28;;;19.40;99.90;;;;;;20921646;28;20052;-73
2022/07/23 03:08:02;;;;;;;13.73;7.30;;;19.50;99.90;;;;;;20920479;28;20044;-73
2022/07/23 03:18:03;;;;;;;11.00;6.93;;;19.50;99.90;;;;;;20919929;28;20041;-73
2022/07/23 03:28:04;;;;;;;11.68;6.97;;;19.80;99.90;;;;;;20919261;28;20449;-73
2022/07/23 03:38:06;;;;;;;13.75;7.45;;;19.70;99.90;;;;;;20918273;28;20104;-73
2022/07/23 03:48:07;;;;;;;13.67;6.90;;;19.70;99.90;;;;;;20917534;28;20528;-77
2022/07/23 03:58:08;;;;;;;9.63;6.77;;;19.60;99.90;;;;;;20916751;28;20078;-76
2022/07/23 04:08:08;;;;;;;16.70;8.60;;;19.70;99.90;;;;;;20915834;28;20037;-77
2022/07/23 04:18:13;;;;;;;12.57;7.15;;;19.30;99.90;;;;;;20915239;28;20068;-77
2022/07/23 04:28:28;;;;;;;13.50;8.65;;;19.40;99.90;;;;;;20899880;28;20111;-76
2022/07/23 04:38:29;;;;;;;15.20;9.27;;;19.00;99.90;;;;;;20915060;28;20033;-77
2022/07/23 04:48:34;;;;;;;16.27;8.13;;;18.90;99.90;;;;;;20912673;28;20045;-77
2022/07/23 04:58:42;;;;;;;16.40;7.03;;;18.90;99.90;;;;;;20912145;28;20091;-77
2022/07/23 05:08:44;;;;;;;18.38;8.77;;;18.90;99.90;;;;;;20911171;28;20045;-77
2022/07/23 05:18:46;;;;;;;12.88;8.85;;;18.80;99.90;;;;;;20909908;28;20409;-77
2022/07/23 05:28:47;;;;;;;11.73;8.60;;;19.20;99.90;;;;;;20910916;28;20048;-77
2022/07/23 05:38:47;;;;;;;11.57;7.50;;;19.40;99.90;;;;;;20893581;28;20068;-76
2022/07/23 05:48:49;;;;;;;12.55;7.63;;;19.60;99.90;;;;;;20907899;28;20405;-76
2022/07/23 05:59:12;;;;;;;11.98;8.40;;;19.80;99.90;;;;;;20907833;28;20536;-77
2022/07/23 06:09:13;;;;;;;14.27;8.48;;;20.00;99.90;;;;;;20906900;28;20128;-77
2022/07/23 06:19:15;;;;;;;14.82;8.68;;;20.00;99.90;;;;;;20905651;28;20179;-77
2022/07/23 06:29:16;;;;;;;13.23;9.02;;;20.20;99.90;;;;;;20905387;28;20378;-77
2022/07/23 06:39:17;;;;;;;12.23;9.57;;;20.20;99.90;;;;;;20905456;28;20048;-77
2022/07/23 06:49:22;;;;;;;12.15;9.27;;;19.90;99.90;;;;;;20904894;28;20040;-77
2022/07/23 06:59:23;;;;;;;;;;;20.30;99.90;;;;;;20905050;28;20048;-76
2022/07/23 07:09:24;;;;;;;12.83;9.03;;;20.40;99.90;;;;;;20905682;28;20070;-76
2022/07/23 07:19:25;;;;;;;14.13;9.13;;;20.50;99.90;;;;;;20905241;28;20040;-76
2022/07/23 07:29:26;;;;;;;12.10;8.03;;;21.00;99.90;;;;;;20901677;28;20524;-77
2022/07/23 07:39:26;;;;;;;14.87;8.43;;;20.80;99.90;;;;;;20910415;28;20120;-77
2022/07/23 07:49:27;;;;;;;11.40;8.23;;;21.00;99.90;;;;;;20965835;22;20132;-74
2022/07/23 07:59:28;;;;;;;9.73;8.17;;;22.10;99.90;;;;;;20964157;28;20056;-76
2022/07/23 08:09:29;;;;;;;13.55;8.38;;;22.00;99.90;;;;;;20965730;28;20291;-75
2022/07/23 08:19:30;;;;;;;12.60;9.23;;;21.80;99.90;;;;;;20959560;28;20113;-76
2022/07/23 08:29:30;;;;;;;15.93;9.87;;;21.80;99.90;;;;;;20979137;28;20036;-75
2022/07/23 08:39:31;;;;;;;15.23;9.97;;;21.40;99.90;;;;;;21000815;28;20048;-76
2022/07/23 08:49:32;;;;;;;16.43;10.27;;;21.40;99.90;;;;;;21010673;28;20671;-76
2022/07/23 08:59:33;;;;;;;;;;;22.20;99.90;;;;;;21011596;28;20108;-76
2022/07/23 09:09:34;;;;;;;13.50;9.00;;;23.30;99.90;;;;;;20993264;28;20007;-76
2022/07/23 09:19:35;;;;;;;;;;;24.60;99.90;;;;;;21005133;28;20332;-75
2022/07/23 09:29:35;;;;;;;11.23;8.57;;;24.60;99.90;;;;;;21018804;28;20380;-76
2022/07/23 09:39:36;;;;;;;;;;;24.70;99.90;;;;;;21010243;28;20036;-76
2022/07/23 09:49:37;;;;;;;10.60;8.47;;;24.30;99.90;;;;;;21004849;28;20002;-75
2022/07/23 09:59:39;;;;;;;12.15;8.10;;;24.90;99.90;;;;;;21005842;28;20838;-75
2022/07/23 10:09:40;;;;;;;10.27;7.53;;;25.80;99.90;;;;;;21001312;28;20520;-75
2022/07/23 10:20:01;;;;;;;9.55;7.45;;;25.10;99.90;;;;;;20998191;28;20052;-76
2022/07/23 10:30:09;;;;;;;11.57;7.25;;;24.70;99.90;;;;;;20979649;28;20124;-75
2022/07/23 10:40:14;;;;;;;11.32;7.03;;;25.80;99.90;;;;;;20987403;28;20059;-76
2022/07/23 10:50:22;;;;;;;10.50;6.65;;;25.30;99.90;;;;;;21000407;28;20043;-75
2022/07/23 11:00:25;;;;;;;9.77;6.95;;;25.70;99.90;;;;;;20998517;28;20078;-77
2022/07/23 11:10:33;;;;;;;9.98;6.30;;;26.00;99.90;;;;;;21001167;28;20115;-76
2022/07/23 11:20:34;;;;;;;9.00;6.85;;;26.50;99.90;;;;;;21013772;28;20104;-77
2022/07/23 11:30:35;;;;;;;8.68;6.30;;;27.40;99.90;;;;;;20953139;28;20405;-76
2022/07/23 11:40:36;;;;;;;10.20;7.20;;;27.40;99.90;;;;;;20931941;28;20110;-76
2022/07/23 11:50:38;;;;;;;9.25;6.45;;;28.00;99.90;;;;;;20929108;28;20060;-76
2022/07/23 12:00:41;;;;;;;11.13;7.40;;;27.80;99.90;;;;;;20927894;28;20493;-76
2022/07/23 12:10:44;;;;;;;11.13;7.85;;;27.40;99.90;;;;;;20932582;28;20079;-77
2022/07/23 12:20:51;;;;;;;11.98;7.28;;;28.00;99.90;;;;;;20927968;28;20037;-76
2022/07/23 12:30:53;;;;;;;9.88;7.30;;;27.60;99.90;;;;;;20931500;28;20086;-76
2022/07/23 12:40:56;;;;;;;9.20;6.82;;;27.80;99.90;;;;;;20927002;28;20037;-76
2022/07/23 12:51:02;;;;;;;9.02;6.30;;;27.60;99.90;;;;;;20927029;28;20033;-77
2022/07/23 13:01:04;;;;;;;9.90;7.30;;;27.90;99.90;;;;;;20927790;28;20072;-77
2022/07/23 13:11:06;;;;;;;14.35;6.78;;;28.50;99.90;;;;;;20930853;28;20138;-77
2022/07/23 13:21:07;;;;;;;8.82;6.70;;;27.90;99.90;;;;;;21001881;28;20111;-76
2022/07/23 13:31:08;;;;;;;9.60;6.57;;;28.20;99.90;;;;;;21008729;28;20036;-76
2022/07/23 13:41:10;;;;;;;13.10;6.72;;;28.30;99.90;;;;;;21001441;28;20037;-76
2022/07/23 13:51:12;;;;;;;10.40;6.35;;;28.20;99.90;;;;;;20958357;22;20053;-78
2022/07/23 14:01:13;;;;;;;9.40;5.72;;;29.30;99.90;;;;;;20910428;28;20036;-79
2022/07/23 14:11:14;;;;;;;6.82;5.40;;;29.10;99.90;;;;;;20923161;28;20039;-78
2022/07/23 14:21:15;;;;;;;7.32;5.82;;;29.20;99.90;;;;;;20947331;28;20060;-78
2022/07/23 14:31:15;;;;;;;12.23;5.70;;;30.60;99.90;;;;;;20912783;28;20474;-79
2022/07/23 14:41:16;;;;;;;7.72;5.72;;;30.30;99.90;;;;;;20906034;28;20029;-79
2022/07/23 14:51:17;;;;;;;8.27;5.32;;;29.60;99.90;;;;;;20920728;28;20078;-79
2022/07/23 15:01:18;;;;;;;10.38;5.10;;;30.20;99.90;;;;;;20923128;28;20072;-79
2022/07/23 15:11:19;;;;;;;7.60;5.05;;;30.10;99.90;;;;;;20923734;28;20064;-77
2022/07/23 15:21:20;;;;;;;10.02;5.43;;;30.10;99.90;;;;;;20934026;28;20037;-78
2022/07/23 15:31:21;;;;;;;6.53;4.80;;;31.00;99.90;;;;;;20921851;28;20071;-78
2022/07/23 15:41:22;;;;;;;6.85;4.88;;;30.40;99.90;;;;;;20920457;28;20257;-79
2022/07/23 15:51:23;;;;;;;8.95;5.32;;;30.10;99.90;;;;;;20918091;28;20132;-80
2022/07/23 16:01:24;;;;;;;6.97;5.25;;;29.70;99.90;;;;;;20919627;28;20116;-80
2022/07/23 16:11:24;;;;;;;5.78;4.97;;;29.30;99.90;;;;;;20928243;28;20404;-80
2022/07/23 16:21:25;;;;;;;6.95;5.22;;;29.40;99.90;;;;;;20920473;28;20044;-80
2022/07/23 16:31:26;;;;;;;7.05;4.97;;;28.90;99.90;;;;;;20921943;28;20069;-80
2022/07/23 16:41:27;;;;;;;6.05;4.60;;;29.00;99.90;;;;;;20922101;28;20393;-79
2022/07/23 16:51:28;;;;;;;8.68;4.90;;;28.90;99.90;;;;;;20921365;28;20056;-80
2022/07/23 17:01:29;;;;;;;12.32;10.68;;;28.70;99.90;;;;;;20925467;28;20032;-80
2022/07/23 17:11:30;;;;;;;11.68;6.03;;;28.60;99.90;;;;;;20917954;28;20041;-81
2022/07/23 17:21:31;;;;;;;35.03;31.60;;;28.70;99.90;;;;;;20916175;28;20398;-81
2022/07/23 17:31:32;;;;;;;17.95;8.77;;;28.60;99.90;;;;;;20916417;28;20049;-80
2022/07/23 17:41:33;;;;;;;10.13;5.88;;;28.70;99.90;;;;;;20913921;28;20386;-80
2022/07/23 17:51:34;;;;;;;6.68;5.28;;;28.30;99.90;;;;;;20914106;28;20048;-81
2022/07/23 18:01:36;;;;;;;9.57;6.32;;;28.10;99.90;;;;;;20913024;28;20041;-80
2022/07/23 18:11:39;;;;;;;9.65;5.78;;;27.80;99.90;;;;;;20911278;28;20037;-82
2022/07/23 18:21:40;;;;;;;12.15;5.75;;;27.50;99.90;;;;;;20911566;28;20037;-80
2022/07/23 18:31:40;;;;;;;10.98;6.03;;;27.20;99.90;;;;;;20911956;28;20041;-79
2022/07/23 18:41:41;;;;;;;12.00;7.20;;;26.70;99.90;;;;;;20923563;28;20560;-80
2022/07/23 18:51:42;;;;;;;10.15;6.22;;;26.00;99.90;;;;;;20945711;28;20068;-80
2022/07/23 19:01:44;;;;;;;13.00;5.88;;;25.40;99.90;;;;;;20927674;28;20033;-80
2022/07/23 19:11:45;;;;;;;16.17;9.98;;;25.10;99.90;;;;;;20910703;28;20541;-77
2022/07/23 19:21:46;;;;;;;;;;;24.70;99.90;;;;;;20917617;28;20070;-78
2022/07/23 19:31:47;;;;;;;15.98;7.38;;;24.70;99.90;;;;;;20909677;28;20322;-78
2022/07/23 19:41:47;;;;;;;;;;;24.30;99.90;;;;;;20924925;28;20045;-78
2022/07/23 19:51:48;;;;;;;9.83;6.73;;;24.00;99.90;;;;;;21038209;22;19928;-79
2022/07/23 20:01:49;;;;;;;10.13;6.97;;;23.60;99.90;;;;;;21064998;28;20092;-80
2022/07/23 20:11:51;;;;;;;13.63;8.52;;;23.40;99.90;;;;;;21070864;28;20044;-78
2022/07/23 20:21:51;;;;;;;11.63;8.00;;;22.80;99.90;;;;;;21075955;28;20032;-78
2022/07/23 20:31:52;;;;;;;12.00;7.97;;;22.60;99.90;;;;;;21055021;28;20035;-79
2022/07/23 20:41:53;;;;;;;13.38;7.40;;;22.50;99.90;;;;;;21100267;28;20294;-79
2022/07/23 20:51:54;;;;;;;13.27;7.07;;;22.60;99.90;;;;;;21102856;28;20058;-79
2022/07/23 21:01:55;;;;;;;12.97;9.00;;;22.30;99.90;;;;;;21066444;28;20286;-78
2022/07/23 21:11:55;;;;;;;11.90;8.43;;;22.20;99.90;;;;;;21042836;28;20029;-80
2022/07/23 21:21:56;;;;;;;13.33;8.10;;;22.10;99.90;;;;;;21071420;28;20271;-78
2022/07/23 21:31:57;;;;;;;9.83;7.80;;;22.00;99.90;;;;;;21089856;28;20058;-79
2022/07/23 21:41:58;;;;;;;11.63;8.50;;;21.20;99.90;;;;;;21086178;28;20355;-79
2022/07/23 21:51:59;;;;;;;9.32;7.28;;;21.70;99.90;;;;;;21080788;28;20332;-77
2022/07/23 22:02:00;;;;;;;16.33;9.07;;;21.80;99.90;;;;;;21070215;28;20065;-78
2022/07/23 22:12:01;;;;;;;13.23;9.13;;;21.50;99.90;;;;;;21067285;28;20062;-78
2022/07/23 22:22:02;;;;;;;;;;;21.60;99.90;;;;;;21051829;28;20047;-77
2022/07/23 22:32:03;;;;;;;17.43;9.57;;;21.40;99.90;;;;;;21057920;28;19912;-77
2022/07/23 22:42:04;;;;;;;12.73;8.18;;;21.00;99.90;;;;;;21095736;28;20028;-79
2022/07/23 22:52:05;;;;;;;13.60;9.67;;;21.00;99.90;;;;;;21070091;28;20408;-79
2022/07/23 23:02:06;;;;;;;31.70;15.43;;;20.80;99.90;;;;;;21066660;28;20036;-79
2022/07/23 23:12:07;;;;;;;33.50;18.80;;;21.00;99.90;;;;;;21081636;28;20036;-79
2022/07/23 23:22:08;;;;;;;21.77;12.88;;;20.70;99.90;;;;;;21084008;28;20269;-78
2022/07/23 23:32:09;;;;;;;22.97;12.93;;;20.70;99.90;;;;;;21089232;28;20040;-77
2022/07/23 23:42:10;;;;;;;25.60;16.17;;;20.60;99.90;;;;;;21096687;28;20458;-78
2022/07/23 23:52:10;;;;;;;19.03;11.27;;;20.50;99.90;;;;;;21083384;28;20040;-78
